sensor_id;sensor_type;location;lat;lon;timestamp;pressure;altitude;pressure_sealevel;temperature;humidity
70072;BME280;57434;42.794;23.302;2022-08-25T00:01:19;95330.31;;;16.84;80.98
70072;BME280;57434;42.794;23.302;2022-08-25T00:03:48;95428.78;;;17.10;81.54
70072;BME280;57434;42.794;23.302;2022-08-25T00:06:15;95391.31;;;16.72;82.17
70072;BME280;57434;42.794;23.302;2022-08-25T00:08:41;95175.75;;;14.97;81.49
70072;BME280;57434;42.794;23.302;2022-08-25T00:11:16;95241.75;;;15.93;81.35
70072;BME280;57434;42.794;23.302;2022-08-25T00:13:48;95088.41;;;14.61;81.12
70072;BME280;57434;42.794;23.302;2022-08-25T00:16:17;95559.88;;;17.80;81.66
70072;BME280;57434;42.794;23.302;2022-08-25T00:21:37;95005.94;;;14.49;80.80
70072;BME280;57434;42.794;23.302;2022-08-25T00:24:36;95348.41;;;16.49;82.15
70072;BME280;57434;42.794;23.302;2022-08-25T00:27:14;95350.28;;;16.27;83.09
70072;BME280;57434;42.794;23.302;2022-08-25T00:33:17;95075.63;;;14.36;82.41
70072;BME280;57434;42.794;23.302;2022-08-25T00:35:45;95524.84;;;17.77;82.83
70072;BME280;57434;42.794;23.302;2022-08-25T00:38:15;95397.25;;;16.87;82.37
70072;BME280;57434;42.794;23.302;2022-08-25T00:40:41;95504.75;;;17.75;81.92
70072;BME280;57434;42.794;23.302;2022-08-25T00:43:11;95524.84;;;17.90;81.75
70072;BME280;57434;42.794;23.302;2022-08-25T00:45:37;95543.94;;;17.77;81.80
70072;BME280;57434;42.794;23.302;2022-08-25T00:48:04;95553.53;;;17.74;81.81
70072;BME280;57434;42.794;23.302;2022-08-25T00:50:32;95550.91;;;17.44;82.39
70072;BME280;57434;42.794;23.302;2022-08-25T00:53:02;95503.09;;;17.21;83.07
70072;BME280;57434;42.794;23.302;2022-08-25T00:55:35;95530.69;;;17.34;83.66
70072;BME280;57434;42.794;23.302;2022-08-25T00:58:08;95512.38;;;17.35;83.88
70072;BME280;57434;42.794;23.302;2022-08-25T01:00:43;95513.16;;;17.36;83.53
70072;BME280;57434;42.794;23.302;2022-08-25T01:03:10;95448.94;;;16.93;83.16
70072;BME280;57434;42.794;23.302;2022-08-25T01:05:37;95432.66;;;16.62;83.75
70072;BME280;57434;42.794;23.302;2022-08-25T01:08:04;95490.28;;;17.02;84.48
70072;BME280;57434;42.794;23.302;2022-08-25T01:10:34;95410.41;;;16.34;84.36
70072;BME280;57434;42.794;23.302;2022-08-25T01:13:15;95517.97;;;17.09;84.36
70072;BME280;57434;42.794;23.302;2022-08-25T01:15:45;95327.50;;;16.01;83.70
70072;BME280;57434;42.794;23.302;2022-08-25T01:18:10;95508.63;;;17.14;83.75
70072;BME280;57434;42.794;23.302;2022-08-25T01:20:37;95480.94;;;16.88;83.92
70072;BME280;57434;42.794;23.302;2022-08-25T01:23:03;95256.34;;;15.22;84.22
70072;BME280;57434;42.794;23.302;2022-08-25T01:26:05;95524.97;;;16.89;84.98
70072;BME280;57434;42.794;23.302;2022-08-25T01:28:32;95491.47;;;16.74;85.39
70072;BME280;57434;42.794;23.302;2022-08-25T01:30:58;95395.75;;;16.16;86.04
70072;BME280;57434;42.794;23.302;2022-08-25T01:33:24;95503.38;;;16.86;86.06
70072;BME280;57434;42.794;23.302;2022-08-25T01:35:50;95357.97;;;15.95;86.17
70072;BME280;57434;42.794;23.302;2022-08-25T01:38:17;95139.75;;;14.35;86.36
70072;BME280;57434;42.794;23.302;2022-08-25T01:41:06;95532.59;;;17.13;86.21
70072;BME280;57434;42.794;23.302;2022-08-25T01:43:37;95459.88;;;17.02;85.57
70072;BME280;57434;42.794;23.302;2022-08-25T01:46:06;95051.84;;;14.50;84.56
70072;BME280;57434;42.794;23.302;2022-08-25T01:48:35;95072.84;;;14.54;84.02
70072;BME280;57434;42.794;23.302;2022-08-25T01:51:01;95241.69;;;15.80;83.58
70072;BME280;57434;42.794;23.302;2022-08-25T01:53:29;95075.00;;;14.67;83.03
70072;BME280;57434;42.794;23.302;2022-08-25T01:55:55;95346.25;;;16.55;83.52
70072;BME280;57434;42.794;23.302;2022-08-25T01:58:35;95024.34;;;14.56;83.09
70072;BME280;57434;42.794;23.302;2022-08-25T02:01:07;95491.66;;;17.72;83.72
70072;BME280;57434;42.794;23.302;2022-08-25T02:03:46;95518.16;;;17.62;83.40
70072;BME280;57434;42.794;23.302;2022-08-25T02:06:21;95079.50;;;14.95;82.85
70072;BME280;57434;42.794;23.302;2022-08-25T02:08:55;95279.06;;;16.23;82.71
70072;BME280;57434;42.794;23.302;2022-08-25T02:11:36;95248.66;;;16.11;82.59
70072;BME280;57434;42.794;23.302;2022-08-25T02:14:19;95218.91;;;15.72;82.89
70072;BME280;57434;42.794;23.302;2022-08-25T02:17:10;95316.81;;;16.13;83.67
70072;BME280;57434;42.794;23.302;2022-08-25T02:19:46;95309.66;;;16.25;83.70
70072;BME280;57434;42.794;23.302;2022-08-25T02:22:25;95251.16;;;15.82;84.07
70072;BME280;57434;42.794;23.302;2022-08-25T02:24:51;95368.03;;;16.60;83.96
70072;BME280;57434;42.794;23.302;2022-08-25T02:27:19;95342.94;;;16.51;83.92
70072;BME280;57434;42.794;23.302;2022-08-25T02:29:45;95143.31;;;15.03;83.64
70072;BME280;57434;42.794;23.302;2022-08-25T02:32:11;95375.31;;;16.55;83.89
70072;BME280;57434;42.794;23.302;2022-08-25T02:34:37;95524.19;;;17.39;84.65
70072;BME280;57434;42.794;23.302;2022-08-25T02:37:06;95373.56;;;16.20;85.44
70072;BME280;57434;42.794;23.302;2022-08-25T02:39:32;95348.59;;;16.38;85.54
70072;BME280;57434;42.794;23.302;2022-08-25T02:41:58;95367.78;;;16.45;85.46
70072;BME280;57434;42.794;23.302;2022-08-25T02:44:24;95355.47;;;16.42;85.01
70072;BME280;57434;42.794;23.302;2022-08-25T02:46:50;95438.22;;;16.86;84.83
70072;BME280;57434;42.794;23.302;2022-08-25T02:49:16;95407.81;;;16.86;84.25
70072;BME280;57434;42.794;23.302;2022-08-25T02:51:43;95361.06;;;16.61;84.32
70072;BME280;57434;42.794;23.302;2022-08-25T02:54:09;95414.16;;;16.92;84.27
70072;BME280;57434;42.794;23.302;2022-08-25T02:56:34;95479.66;;;17.21;83.83
70072;BME280;57434;42.794;23.302;2022-08-25T02:59:01;95359.25;;;16.64;83.57
70072;BME280;57434;42.794;23.302;2022-08-25T03:01:27;95504.81;;;17.56;83.56
70072;BME280;57434;42.794;23.302;2022-08-25T03:03:53;95399.09;;;16.84;83.30
70072;BME280;57434;42.794;23.302;2022-08-25T03:06:20;95511.09;;;17.36;84.29
70072;BME280;57434;42.794;23.302;2022-08-25T03:08:48;95394.38;;;16.74;84.18
70072;BME280;57434;42.794;23.302;2022-08-25T03:11:14;95397.75;;;16.72;84.27
70072;BME280;57434;42.794;23.302;2022-08-25T03:13:40;95488.06;;;17.26;84.29
70072;BME280;57434;42.794;23.302;2022-08-25T03:16:07;95487.53;;;17.41;84.16
70072;BME280;57434;42.794;23.302;2022-08-25T03:18:33;95394.47;;;16.68;84.49
70072;BME280;57434;42.794;23.302;2022-08-25T03:20:59;95409.63;;;16.52;84.47
70072;BME280;57434;42.794;23.302;2022-08-25T03:23:28;95506.25;;;17.18;85.20
70072;BME280;57434;42.794;23.302;2022-08-25T03:25:54;95356.59;;;16.20;85.10
70072;BME280;57434;42.794;23.302;2022-08-25T03:28:39;95417.72;;;16.61;85.17
70072;BME280;57434;42.794;23.302;2022-08-25T03:31:06;95366.91;;;16.18;85.72
70072;BME280;57434;42.794;23.302;2022-08-25T03:33:33;95259.69;;;15.20;86.97
70072;BME280;57434;42.794;23.302;2022-08-25T03:35:59;95243.59;;;14.91;87.77
70072;BME280;57434;42.794;23.302;2022-08-25T03:38:26;95501.47;;;16.56;88.36
70072;BME280;57434;42.794;23.302;2022-08-25T03:40:52;95315.78;;;15.35;88.32
70072;BME280;57434;42.794;23.302;2022-08-25T03:43:19;95502.13;;;16.68;88.22
70072;BME280;57434;42.794;23.302;2022-08-25T03:45:45;95523.94;;;16.73;88.02
70072;BME280;57434;42.794;23.302;2022-08-25T03:48:12;95326.66;;;15.50;87.80
70072;BME280;57434;42.794;23.302;2022-08-25T03:50:50;95514.03;;;16.80;88.17
70072;BME280;57434;42.794;23.302;2022-08-25T03:53:16;95439.66;;;16.42;87.83
70072;BME280;57434;42.794;23.302;2022-08-25T03:55:42;95385.63;;;16.02;87.26
70072;BME280;57434;42.794;23.302;2022-08-25T03:58:08;95394.66;;;16.01;87.00
70072;BME280;57434;42.794;23.302;2022-08-25T04:00:34;95378.91;;;16.05;86.84
70072;BME280;57434;42.794;23.302;2022-08-25T04:03:00;95389.59;;;16.31;86.59
70072;BME280;57434;42.794;23.302;2022-08-25T04:05:26;95508.66;;;16.95;86.47
70072;BME280;57434;42.794;23.302;2022-08-25T04:07:52;95465.81;;;16.67;86.57
70072;BME280;57434;42.794;23.302;2022-08-25T04:10:18;95491.84;;;16.65;87.91
70072;BME280;57434;42.794;23.302;2022-08-25T04:12:44;95417.44;;;16.27;87.86
70072;BME280;57434;42.794;23.302;2022-08-25T04:15:11;95366.38;;;16.19;86.87
70072;BME280;57434;42.794;23.302;2022-08-25T04:17:38;95428.81;;;16.59;86.61
70072;BME280;57434;42.794;23.302;2022-08-25T04:20:06;95367.91;;;16.02;87.07
70072;BME280;57434;42.794;23.302;2022-08-25T04:22:32;95362.53;;;16.17;86.79
70072;BME280;57434;42.794;23.302;2022-08-25T04:24:58;95487.22;;;17.00;86.63
70072;BME280;57434;42.794;23.302;2022-08-25T04:27:24;95395.34;;;16.44;86.45
70072;BME280;57434;42.794;23.302;2022-08-25T04:29:50;95510.75;;;17.26;86.42
70072;BME280;57434;42.794;23.302;2022-08-25T04:32:16;95417.59;;;16.72;85.64
70072;BME280;57434;42.794;23.302;2022-08-25T04:34:43;95374.09;;;16.51;85.39
70072;BME280;57434;42.794;23.302;2022-08-25T04:37:09;95409.44;;;16.63;85.76
70072;BME280;57434;42.794;23.302;2022-08-25T04:39:35;95494.38;;;17.33;85.88
70072;BME280;57434;42.794;23.302;2022-08-25T04:42:01;95491.69;;;17.40;85.69
70072;BME280;57434;42.794;23.302;2022-08-25T04:44:27;95408.25;;;16.77;85.33
70072;BME280;57434;42.794;23.302;2022-08-25T04:46:54;95346.56;;;16.51;85.17
70072;BME280;57434;42.794;23.302;2022-08-25T04:49:20;95312.31;;;16.36;85.14
70072;BME280;57434;42.794;23.302;2022-08-25T04:51:45;95497.09;;;17.70;84.57
70072;BME280;57434;42.794;23.302;2022-08-25T04:54:13;95475.81;;;17.64;84.50
70072;BME280;57434;42.794;23.302;2022-08-25T04:56:46;95505.88;;;17.85;84.23
70072;BME280;57434;42.794;23.302;2022-08-25T04:59:14;95466.00;;;17.65;84.34
70072;BME280;57434;42.794;23.302;2022-08-25T05:01:41;95423.63;;;17.27;84.35
70072;BME280;57434;42.794;23.302;2022-08-25T05:04:09;95393.81;;;17.20;84.61
70072;BME280;57434;42.794;23.302;2022-08-25T05:06:35;95496.56;;;17.98;84.70
70072;BME280;57434;42.794;23.302;2022-08-25T05:09:02;95507.28;;;18.05;84.67
70072;BME280;57434;42.794;23.302;2022-08-25T05:11:29;95427.22;;;17.41;84.87
70072;BME280;57434;42.794;23.302;2022-08-25T05:13:56;95502.25;;;18.11;84.83
70072;BME280;57434;42.794;23.302;2022-08-25T05:16:23;95497.09;;;18.23;85.00
70072;BME280;57434;42.794;23.302;2022-08-25T05:18:50;95383.06;;;17.58;84.53
70072;BME280;57434;42.794;23.302;2022-08-25T05:21:18;95489.09;;;18.48;84.17
70072;BME280;57434;42.794;23.302;2022-08-25T05:23:45;95485.59;;;18.68;83.54
70072;BME280;57434;42.794;23.302;2022-08-25T05:26:17;95478.28;;;18.59;82.97
70072;BME280;57434;42.794;23.302;2022-08-25T05:28:44;95389.25;;;17.97;82.56
70072;BME280;57434;42.794;23.302;2022-08-25T05:31:12;95505.94;;;18.93;81.89
70072;BME280;57434;42.794;23.302;2022-08-25T05:33:40;95495.56;;;18.96;81.36
70072;BME280;57434;42.794;23.302;2022-08-25T05:36:07;95393.09;;;18.33;80.89
70072;BME280;57434;42.794;23.302;2022-08-25T05:38:34;95457.47;;;18.99;80.15
70072;BME280;57434;42.794;23.302;2022-08-25T05:41:06;95486.59;;;19.33;80.28
70072;BME280;57434;42.794;23.302;2022-08-25T05:43:36;95423.13;;;18.76;79.53
70072;BME280;57434;42.794;23.302;2022-08-25T05:46:02;95460.13;;;19.17;79.31
70072;BME280;57434;42.794;23.302;2022-08-25T05:48:28;95410.88;;;18.81;79.28
70072;BME280;57434;42.794;23.302;2022-08-25T05:50:56;95357.66;;;18.47;79.32
70072;BME280;57434;42.794;23.302;2022-08-25T05:53:23;95484.63;;;19.41;79.28
70072;BME280;57434;42.794;23.302;2022-08-25T05:55:51;95490.88;;;19.40;79.56
70072;BME280;57434;42.794;23.302;2022-08-25T05:58:17;95472.91;;;19.24;79.61
70072;BME280;57434;42.794;23.302;2022-08-25T06:00:44;95469.50;;;19.46;79.50
70072;BME280;57434;42.794;23.302;2022-08-25T06:03:09;95375.72;;;19.12;78.17
70072;BME280;57434;42.794;23.302;2022-08-25T06:05:36;95471.50;;;19.87;78.41
70072;BME280;57434;42.794;23.302;2022-08-25T06:08:02;95476.34;;;19.72;78.25
70072;BME280;57434;42.794;23.302;2022-08-25T06:10:28;95433.22;;;19.39;78.76
70072;BME280;57434;42.794;23.302;2022-08-25T06:12:54;95399.44;;;19.15;78.60
70072;BME280;57434;42.794;23.302;2022-08-25T06:15:22;95377.59;;;19.10;77.20
70072;BME280;57434;42.794;23.302;2022-08-25T06:17:49;95473.69;;;20.02;77.59
70072;BME280;57434;42.794;23.302;2022-08-25T06:20:22;95479.53;;;19.97;77.77
70072;BME280;57434;42.794;23.302;2022-08-25T06:22:49;95487.94;;;20.02;77.54
70072;BME280;57434;42.794;23.302;2022-08-25T06:25:23;95485.72;;;20.16;77.03
70072;BME280;57434;42.794;23.302;2022-08-25T06:27:50;95468.59;;;20.08;76.75
70072;BME280;57434;42.794;23.302;2022-08-25T06:30:19;95480.09;;;20.23;76.23
70072;BME280;57434;42.794;23.302;2022-08-25T06:32:45;95399.78;;;19.60;76.85
70072;BME280;57434;42.794;23.302;2022-08-25T06:35:17;95491.44;;;20.52;76.74
70072;BME280;57434;42.794;23.302;2022-08-25T06:37:44;95326.84;;;19.42;74.69
70072;BME280;57434;42.794;23.302;2022-08-25T06:40:11;95362.56;;;19.87;74.29
70072;BME280;57434;42.794;23.302;2022-08-25T06:42:38;95458.63;;;20.58;74.68
70072;BME280;57434;42.794;23.302;2022-08-25T06:45:04;95351.53;;;19.83;74.71
70072;BME280;57434;42.794;23.302;2022-08-25T06:47:31;95332.72;;;19.80;74.50
70072;BME280;57434;42.794;23.302;2022-08-25T06:49:56;95434.16;;;20.78;73.64
70072;BME280;57434;42.794;23.302;2022-08-25T06:52:22;95485.03;;;21.33;73.07
70072;BME280;57434;42.794;23.302;2022-08-25T06:54:51;95419.91;;;20.93;72.61
70072;BME280;57434;42.794;23.302;2022-08-25T06:57:17;95440.91;;;21.11;72.60
70072;BME280;57434;42.794;23.302;2022-08-25T06:59:43;95380.00;;;20.86;71.45
70072;BME280;57434;42.794;23.302;2022-08-25T07:02:09;95432.91;;;21.10;71.96
70072;BME280;57434;42.794;23.302;2022-08-25T07:04:35;95466.78;;;21.44;71.58
70072;BME280;57434;42.794;23.302;2022-08-25T07:07:02;95385.69;;;20.93;71.11
70072;BME280;57434;42.794;23.302;2022-08-25T07:09:28;95365.38;;;21.20;70.53
70072;BME280;57434;42.794;23.302;2022-08-25T07:11:54;95398.50;;;21.38;70.00
70072;BME280;57434;42.794;23.302;2022-08-25T07:14:20;95427.56;;;21.75;71.09
70072;BME280;57434;42.794;23.302;2022-08-25T07:16:46;95388.56;;;21.70;69.79
70072;BME280;57434;42.794;23.302;2022-08-25T07:19:12;95365.53;;;21.52;69.43
70072;BME280;57434;42.794;23.302;2022-08-25T07:21:40;95463.72;;;22.03;69.23
70072;BME280;57434;42.794;23.302;2022-08-25T07:24:09;95400.16;;;21.94;69.36
70072;BME280;57434;42.794;23.302;2022-08-25T07:26:35;95287.97;;;21.23;68.81
70072;BME280;57434;42.794;23.302;2022-08-25T07:29:04;95377.13;;;21.85;68.58
70072;BME280;57434;42.794;23.302;2022-08-25T07:31:30;95382.44;;;21.96;68.52
70072;BME280;57434;42.794;23.302;2022-08-25T07:33:56;95372.69;;;21.99;68.33
70072;BME280;57434;42.794;23.302;2022-08-25T07:36:41;95294.75;;;21.58;68.03
70072;BME280;57434;42.794;23.302;2022-08-25T07:39:07;95373.88;;;21.88;68.25
70072;BME280;57434;42.794;23.302;2022-08-25T07:41:38;95475.09;;;22.81;66.61
70072;BME280;57434;42.794;23.302;2022-08-25T07:44:06;95409.56;;;22.75;66.49
70072;BME280;57434;42.794;23.302;2022-08-25T07:46:32;95375.75;;;22.49;66.41
70072;BME280;57434;42.794;23.302;2022-08-25T07:48:58;95391.84;;;22.69;66.44
70072;BME280;57434;42.794;23.302;2022-08-25T07:51:27;95476.63;;;23.14;66.29
70072;BME280;57434;42.794;23.302;2022-08-25T07:53:52;95415.25;;;23.08;65.86
70072;BME280;57434;42.794;23.302;2022-08-25T07:56:18;95468.41;;;23.93;63.00
70072;BME280;57434;42.794;23.302;2022-08-25T07:58:46;95322.84;;;23.40;60.91
70072;BME280;57434;42.794;23.302;2022-08-25T08:01:17;95398.91;;;24.44;59.64
70072;BME280;57434;42.794;23.302;2022-08-25T08:03:43;95292.41;;;23.86;58.10
70072;BME280;57434;42.794;23.302;2022-08-25T08:06:11;95359.38;;;24.43;57.65
70072;BME280;57434;42.794;23.302;2022-08-25T08:08:37;95286.09;;;24.32;55.32
70072;BME280;57434;42.794;23.302;2022-08-25T08:11:04;95448.41;;;25.60;52.41
70072;BME280;57434;42.794;23.302;2022-08-25T08:13:32;95439.53;;;25.85;55.46
70072;BME280;57434;42.794;23.302;2022-08-25T08:15:58;95443.13;;;26.03;54.88
70072;BME280;57434;42.794;23.302;2022-08-25T08:18:23;95380.94;;;26.07;49.78
70072;BME280;57434;42.794;23.302;2022-08-25T08:20:49;95361.69;;;26.10;49.81
70072;BME280;57434;42.794;23.302;2022-08-25T08:23:16;95433.47;;;26.66;48.09
70072;BME280;57434;42.794;23.302;2022-08-25T08:25:41;95325.06;;;25.72;50.55
70072;BME280;57434;42.794;23.302;2022-08-25T08:28:07;95360.13;;;25.24;48.89
70072;BME280;57434;42.794;23.302;2022-08-25T08:30:34;95391.25;;;25.64;50.02
70072;BME280;57434;42.794;23.302;2022-08-25T08:33:00;95286.38;;;25.17;49.14
70072;BME280;57434;42.794;23.302;2022-08-25T08:35:27;95348.22;;;26.12;48.59
70072;BME280;57434;42.794;23.302;2022-08-25T08:37:52;95254.28;;;25.95;46.58
70072;BME280;57434;42.794;23.302;2022-08-25T08:40:19;95279.44;;;26.64;46.17
70072;BME280;57434;42.794;23.302;2022-08-25T08:42:57;95419.53;;;27.82;43.68
70072;BME280;57434;42.794;23.302;2022-08-25T08:45:54;95416.03;;;27.83;42.89
70072;BME280;57434;42.794;23.302;2022-08-25T08:51:20;95413.72;;;28.13;43.27
70072;BME280;57434;42.794;23.302;2022-08-25T08:54:06;95407.41;;;28.47;41.95
70072;BME280;57434;42.794;23.302;2022-08-25T08:56:41;95409.41;;;28.45;40.96
70072;BME280;57434;42.794;23.302;2022-08-25T08:59:30;95413.00;;;28.67;39.56
70072;BME280;57434;42.794;23.302;2022-08-25T09:02:00;95315.19;;;27.95;40.91
70072;BME280;57434;42.794;23.302;2022-08-25T09:04:42;95314.94;;;27.91;40.77
70072;BME280;57434;42.794;23.302;2022-08-25T09:07:13;95404.28;;;28.76;39.09
70072;BME280;57434;42.794;23.302;2022-08-25T09:09:42;95333.78;;;27.82;40.66
70072;BME280;57434;42.794;23.302;2022-08-25T09:15:33;95409.03;;;28.72;42.07
70072;BME280;57434;42.794;23.302;2022-08-25T09:21:37;95339.59;;;27.73;43.36
70072;BME280;57434;42.794;23.302;2022-08-25T09:29:39;95369.63;;;28.22;40.93
70072;BME280;57434;42.794;23.302;2022-08-25T09:32:07;95255.13;;;27.70;41.55
70072;BME280;57434;42.794;23.302;2022-08-25T09:34:34;95414.34;;;28.87;41.60
70072;BME280;57434;42.794;23.302;2022-08-25T09:37:00;95245.31;;;27.85;41.71
70072;BME280;57434;42.794;23.302;2022-08-25T09:39:26;95309.50;;;27.85;42.63
70072;BME280;57434;42.794;23.302;2022-08-25T09:41:55;95334.50;;;27.92;42.84
70072;BME280;57434;42.794;23.302;2022-08-25T09:49:48;95396.44;;;27.10;45.31
70072;BME280;57434;42.794;23.302;2022-08-25T09:52:25;95339.22;;;26.85;45.42
70072;BME280;57434;42.794;23.302;2022-08-25T09:54:59;95294.31;;;26.42;45.45
70072;BME280;57434;42.794;23.302;2022-08-25T09:59:53;95318.44;;;26.08;45.43
70072;BME280;57434;42.794;23.302;2022-08-25T10:04:49;95319.28;;;26.49;43.99
70072;BME280;57434;42.794;23.302;2022-08-25T10:07:55;95307.22;;;26.21;43.80
70072;BME280;57434;42.794;23.302;2022-08-25T10:10:21;95404.53;;;26.83;42.51
70072;BME280;57434;42.794;23.302;2022-08-25T10:12:48;95320.50;;;26.46;42.93
70072;BME280;57434;42.794;23.302;2022-08-25T10:15:47;95404.94;;;26.98;43.07
70072;BME280;57434;42.794;23.302;2022-08-25T10:18:25;95302.84;;;26.20;42.01
70072;BME280;57434;42.794;23.302;2022-08-25T10:23:47;95344.59;;;26.31;45.02
70072;BME280;57434;42.794;23.302;2022-08-25T10:26:22;95328.56;;;25.99;44.20
70072;BME280;57434;42.794;23.302;2022-08-25T10:31:56;95395.16;;;26.73;44.12
70072;BME280;57434;42.794;23.302;2022-08-25T10:42:33;95220.53;;;25.86;43.82
70072;BME280;57434;42.794;23.302;2022-08-25T10:45:18;95242.47;;;25.91;44.63
70072;BME280;57434;42.794;23.302;2022-08-25T10:48:09;95381.97;;;26.79;44.97
70072;BME280;57434;42.794;23.302;2022-08-25T10:50:57;95354.13;;;26.62;44.38
70072;BME280;57434;42.794;23.302;2022-08-25T10:54:15;95376.50;;;27.64;43.27
70072;BME280;57434;42.794;23.302;2022-08-25T10:56:25;95376.66;;;27.98;42.84
70072;BME280;57434;42.794;23.302;2022-08-25T11:01:51;95378.53;;;27.21;43.71
70072;BME280;57434;42.794;23.302;2022-08-25T11:04:27;95385.59;;;26.80;44.36
70072;BME280;57434;42.794;23.302;2022-08-25T11:07:03;95375.16;;;26.75;45.45
70072;BME280;57434;42.794;23.302;2022-08-25T11:09:39;95305.63;;;26.69;44.93
70072;BME280;57434;42.794;23.302;2022-08-25T11:12:20;95365.28;;;27.69;43.33
70072;BME280;57434;42.794;23.302;2022-08-25T11:14:53;95365.72;;;28.17;42.26
70072;BME280;57434;42.794;23.302;2022-08-25T11:17:29;95275.06;;;28.20;40.41
70072;BME280;57434;42.794;23.302;2022-08-25T11:20:06;95373.75;;;28.40;41.17
70072;BME280;57434;42.794;23.302;2022-08-25T11:22:40;95271.25;;;27.85;40.18
70072;BME280;57434;42.794;23.302;2022-08-25T11:25:50;95349.38;;;29.09;40.14
70072;BME280;57434;42.794;23.302;2022-08-25T11:30:56;95261.34;;;28.99;38.27
70072;BME280;57434;42.794;23.302;2022-08-25T11:33:24;95340.22;;;29.83;37.63
70072;BME280;57434;42.794;23.302;2022-08-25T11:35:57;95336.59;;;29.82;37.37
70072;BME280;57434;42.794;23.302;2022-08-25T11:43:51;95323.50;;;29.46;36.16
70072;BME280;57434;42.794;23.302;2022-08-25T11:46:50;95313.44;;;29.82;35.57
70072;BME280;57434;42.794;23.302;2022-08-25T11:57:42;95304.38;;;31.26;34.16
70072;BME280;57434;42.794;23.302;2022-08-25T12:00:13;95312.78;;;31.48;33.44
70072;BME280;57434;42.794;23.302;2022-08-25T12:02:47;95311.91;;;31.59;33.33
70072;BME280;57434;42.794;23.302;2022-08-25T12:10:56;95309.69;;;30.79;33.87
70072;BME280;57434;42.794;23.302;2022-08-25T12:13:49;95289.66;;;30.83;32.78
70072;BME280;57434;42.794;23.302;2022-08-25T12:19:23;95298.69;;;31.97;33.14
70072;BME280;57434;42.794;23.302;2022-08-25T12:21:51;95170.19;;;30.44;32.38
70072;BME280;57434;42.794;23.302;2022-08-25T12:24:20;95246.38;;;31.13;33.55
70072;BME280;57434;42.794;23.302;2022-08-25T12:37:53;95261.38;;;31.09;31.57
70072;BME280;57434;42.794;23.302;2022-08-25T12:40:28;95310.47;;;31.33;32.41
70072;BME280;57434;42.794;23.302;2022-08-25T12:43:08;95320.16;;;31.23;33.22
70072;BME280;57434;42.794;23.302;2022-08-25T12:45:38;95223.28;;;30.62;33.44
70072;BME280;57434;42.794;23.302;2022-08-25T12:48:38;95276.25;;;31.43;32.63
70072;BME280;57434;42.794;23.302;2022-08-25T12:51:16;95220.78;;;30.68;32.75
70072;BME280;57434;42.794;23.302;2022-08-25T12:53:47;95295.81;;;31.03;33.21
70072;BME280;57434;42.794;23.302;2022-08-25T13:02:23;95298.69;;;30.13;34.57
70072;BME280;57434;42.794;23.302;2022-08-25T13:13:05;95304.78;;;30.56;34.28
70072;BME280;57434;42.794;23.302;2022-08-25T13:15:40;95221.22;;;30.00;34.40
70072;BME280;57434;42.794;23.302;2022-08-25T13:20:39;95209.22;;;29.20;36.15
70072;BME280;57434;42.794;23.302;2022-08-25T13:23:05;95281.03;;;29.49;36.85
70072;BME280;57434;42.794;23.302;2022-08-25T13:25:45;95229.06;;;29.14;37.02
70072;BME280;57434;42.794;23.302;2022-08-25T13:28:21;95174.16;;;29.14;35.94
70072;BME280;57434;42.794;23.302;2022-08-25T13:33:30;95112.63;;;29.11;34.88
70072;BME280;57434;42.794;23.302;2022-08-25T13:35:58;95297.75;;;30.22;34.59
70072;BME280;57434;42.794;23.302;2022-08-25T13:38:45;95292.16;;;30.38;34.71
70072;BME280;57434;42.794;23.302;2022-08-25T13:41:17;95223.44;;;29.76;35.07
70072;BME280;57434;42.794;23.302;2022-08-25T13:43:43;95266.69;;;29.74;35.38
70072;BME280;57434;42.794;23.302;2022-08-25T13:46:09;95244.56;;;30.16;34.54
70072;BME280;57434;42.794;23.302;2022-08-25T13:48:38;95262.94;;;30.71;34.26
70072;BME280;57434;42.794;23.302;2022-08-25T13:51:25;95145.81;;;28.99;34.43
70072;BME280;57434;42.794;23.302;2022-08-25T13:53:58;95289.09;;;29.50;35.70
70072;BME280;57434;42.794;23.302;2022-08-25T13:56:28;95306.78;;;28.98;37.12
70072;BME280;57434;42.794;23.302;2022-08-25T13:58:56;95295.78;;;28.61;37.50
70072;BME280;57434;42.794;23.302;2022-08-25T14:01:25;95308.19;;;29.09;36.66
70072;BME280;57434;42.794;23.302;2022-08-25T14:03:54;95203.09;;;28.22;36.14
70072;BME280;57434;42.794;23.302;2022-08-25T14:06:26;95301.50;;;28.94;36.50
70072;BME280;57434;42.794;23.302;2022-08-25T14:14:00;95300.03;;;28.27;37.64
70072;BME280;57434;42.794;23.302;2022-08-25T14:16:26;95279.56;;;27.90;37.74
70072;BME280;57434;42.794;23.302;2022-08-25T14:18:54;95214.16;;;27.50;39.37
70072;BME280;57434;42.794;23.302;2022-08-25T14:21:26;95235.78;;;27.61;38.32
70072;BME280;57434;42.794;23.302;2022-08-25T14:23:54;95120.63;;;26.87;37.39
70072;BME280;57434;42.794;23.302;2022-08-25T14:26:21;95288.88;;;28.01;37.92
70072;BME280;57434;42.794;23.302;2022-08-25T14:28:47;95193.03;;;27.15;38.06
70072;BME280;57434;42.794;23.302;2022-08-25T14:31:25;95293.59;;;27.75;38.21
70072;BME280;57434;42.794;23.302;2022-08-25T14:36:19;95203.09;;;26.73;39.14
70072;BME280;57434;42.794;23.302;2022-08-25T14:38:45;95176.63;;;26.65;39.40
70072;BME280;57434;42.794;23.302;2022-08-25T14:41:11;95210.66;;;26.78;39.27
70072;BME280;57434;42.794;23.302;2022-08-25T14:43:36;95201.25;;;26.78;39.20
70072;BME280;57434;42.794;23.302;2022-08-25T14:46:09;95296.13;;;27.38;39.12
70072;BME280;57434;42.794;23.302;2022-08-25T14:48:41;95192.94;;;26.72;39.26
70072;BME280;57434;42.794;23.302;2022-08-25T14:51:10;95209.56;;;26.83;39.46
70072;BME280;57434;42.794;23.302;2022-08-25T14:53:36;95221.22;;;26.85;39.55
70072;BME280;57434;42.794;23.302;2022-08-25T14:56:02;95266.78;;;27.20;40.07
70072;BME280;57434;42.794;23.302;2022-08-25T14:58:28;95176.38;;;26.51;40.08